sensor_id;sensor_type;location;lat;lon;timestamp;pressure;altitude;pressure_sealevel;temperature;humidity
10474;BME280;5284;50.446;7.904;2022-08-19T00:04:31;98153.06;;;19.21;97.02
10474;BME280;5284;50.446;7.904;2022-08-19T00:09:36;98156.97;;;19.18;100.00
10474;BME280;5284;50.446;7.904;2022-08-19T00:14:41;98158.22;;;19.16;98.45
10474;BME280;5284;50.446;7.904;2022-08-19T00:19:43;98153.34;;;19.11;100.00
10474;BME280;5284;50.446;7.904;2022-08-19T00:24:46;98152.31;;;19.12;99.02
10474;BME280;5284;50.446;7.904;2022-08-19T00:29:52;98142.53;;;19.11;98.82
10474;BME280;5284;50.446;7.904;2022-08-19T00:34:55;98145.00;;;19.06;99.66
10474;BME280;5284;50.446;7.904;2022-08-19T00:39:58;98142.28;;;19.06;97.14
10474;BME280;5284;50.446;7.904;2022-08-19T00:45:09;98136.88;;;19.06;96.60
10474;BME280;5284;50.446;7.904;2022-08-19T00:50:15;98143.63;;;18.96;100.00
10474;BME280;5284;50.446;7.904;2022-08-19T00:55:21;98146.72;;;18.93;100.00
10474;BME280;5284;50.446;7.904;2022-08-19T01:00:27;98146.94;;;18.91;100.00
10474;BME280;5284;50.446;7.904;2022-08-19T01:05:30;98135.38;;;18.83;100.00
10474;BME280;5284;50.446;7.904;2022-08-19T01:10:36;98141.34;;;18.78;100.00
10474;BME280;5284;50.446;7.904;2022-08-19T01:15:45;98126.94;;;18.71;100.00
10474;BME280;5284;50.446;7.904;2022-08-19T01:20:50;98123.53;;;18.63;100.00
10474;BME280;5284;50.446;7.904;2022-08-19T01:25:55;98109.19;;;18.62;100.00
10474;BME280;5284;50.446;7.904;2022-08-19T01:30:59;98121.03;;;18.61;100.00
10474;BME280;5284;50.446;7.904;2022-08-19T01:36:11;98117.47;;;18.61;100.00
10474;BME280;5284;50.446;7.904;2022-08-19T01:41:16;98106.88;;;18.59;99.32
10474;BME280;5284;50.446;7.904;2022-08-19T01:46:19;98094.78;;;18.55;100.00
10474;BME280;5284;50.446;7.904;2022-08-19T01:51:25;98093.47;;;18.51;100.00
10474;BME280;5284;50.446;7.904;2022-08-19T01:56:30;98091.13;;;18.48;100.00
10474;BME280;5284;50.446;7.904;2022-08-19T02:01:33;98073.66;;;18.45;100.00
10474;BME280;5284;50.446;7.904;2022-08-19T02:06:36;98080.47;;;18.41;100.00
10474;BME280;5284;50.446;7.904;2022-08-19T02:11:41;98089.97;;;18.37;100.00
10474;BME280;5284;50.446;7.904;2022-08-19T02:16:43;98086.16;;;18.31;100.00
10474;BME280;5284;50.446;7.904;2022-08-19T02:21:46;98088.22;;;18.29;100.00
10474;BME280;5284;50.446;7.904;2022-08-19T02:26:50;98096.69;;;18.26;100.00
10474;BME280;5284;50.446;7.904;2022-08-19T02:31:53;98105.16;;;18.23;100.00
10474;BME280;5284;50.446;7.904;2022-08-19T02:36:56;98106.72;;;18.18;100.00
10474;BME280;5284;50.446;7.904;2022-08-19T02:42:05;98105.53;;;18.06;100.00
10474;BME280;5284;50.446;7.904;2022-08-19T02:47:09;98105.66;;;17.98;100.00
10474;BME280;5284;50.446;7.904;2022-08-19T02:52:12;98105.16;;;17.94;100.00
10474;BME280;5284;50.446;7.904;2022-08-19T02:57:16;98106.41;;;17.92;100.00
10474;BME280;5284;50.446;7.904;2022-08-19T03:02:19;98114.66;;;17.90;100.00
10474;BME280;5284;50.446;7.904;2022-08-19T03:07:22;98115.03;;;17.87;100.00
10474;BME280;5284;50.446;7.904;2022-08-19T03:12:26;98113.91;;;17.82;100.00
10474;BME280;5284;50.446;7.904;2022-08-19T03:17:29;98130.56;;;17.71;100.00
10474;BME280;5284;50.446;7.904;2022-08-19T03:22:32;98123.88;;;17.67;100.00
10474;BME280;5284;50.446;7.904;2022-08-19T03:27:36;98132.88;;;17.59;100.00
10474;BME280;5284;50.446;7.904;2022-08-19T03:32:39;98124.22;;;17.49;100.00
10474;BME280;5284;50.446;7.904;2022-08-19T03:37:45;98131.00;;;17.45;100.00
10474;BME280;5284;50.446;7.904;2022-08-19T03:42:50;98131.63;;;17.33;100.00
10474;BME280;5284;50.446;7.904;2022-08-19T03:47:52;98130.09;;;17.30;100.00
10474;BME280;5284;50.446;7.904;2022-08-19T03:52:55;98132.63;;;17.32;100.00
10474;BME280;5284;50.446;7.904;2022-08-19T03:57:59;98140.38;;;17.35;100.00
10474;BME280;5284;50.446;7.904;2022-08-19T04:03:02;98130.22;;;17.37;100.00
10474;BME280;5284;50.446;7.904;2022-08-19T04:08:05;98126.72;;;17.36;100.00
10474;BME280;5284;50.446;7.904;2022-08-19T04:13:16;98136.28;;;17.39;100.00
10474;BME280;5284;50.446;7.904;2022-08-19T04:18:19;98156.38;;;17.36;100.00
10474;BME280;5284;50.446;7.904;2022-08-19T04:23:22;98150.97;;;17.36;100.00
10474;BME280;5284;50.446;7.904;2022-08-19T04:28:27;98152.81;;;17.36;100.00
10474;BME280;5284;50.446;7.904;2022-08-19T04:33:30;98162.59;;;17.37;100.00
10474;BME280;5284;50.446;7.904;2022-08-19T04:38:33;98160.91;;;17.36;100.00
10474;BME280;5284;50.446;7.904;2022-08-19T04:43:38;98163.97;;;17.33;100.00
10474;BME280;5284;50.446;7.904;2022-08-19T04:48:40;98158.59;;;17.33;100.00
10474;BME280;5284;50.446;7.904;2022-08-19T04:53:50;98158.91;;;17.30;100.00
10474;BME280;5284;50.446;7.904;2022-08-19T04:58:56;98155.00;;;17.32;100.00
10474;BME280;5284;50.446;7.904;2022-08-19T05:03:59;98159.41;;;17.33;100.00
10474;BME280;5284;50.446;7.904;2022-08-19T05:09:04;98162.59;;;17.37;100.00
10474;BME280;5284;50.446;7.904;2022-08-19T05:14:09;98161.41;;;17.39;100.00
10474;BME280;5284;50.446;7.904;2022-08-19T05:19:13;98156.81;;;17.40;100.00
10474;BME280;5284;50.446;7.904;2022-08-19T05:24:34;98166.44;;;17.42;100.00
10474;BME280;5284;50.446;7.904;2022-08-19T05:29:53;98167.44;;;17.41;100.00
10474;BME280;5284;50.446;7.904;2022-08-19T05:34:56;98171.44;;;17.45;100.00
10474;BME280;5284;50.446;7.904;2022-08-19T05:39:59;98168.19;;;17.50;100.00
10474;BME280;5284;50.446;7.904;2022-08-19T05:45:05;98171.75;;;17.50;100.00
10474;BME280;5284;50.446;7.904;2022-08-19T05:50:08;98167.13;;;17.59;100.00
10474;BME280;5284;50.446;7.904;2022-08-19T05:55:11;98164.97;;;17.69;100.00
10474;BME280;5284;50.446;7.904;2022-08-19T06:00:16;98164.06;;;17.76;100.00
10474;BME280;5284;50.446;7.904;2022-08-19T06:05:25;98172.56;;;17.88;100.00
10474;BME280;5284;50.446;7.904;2022-08-19T06:10:28;98174.97;;;17.97;100.00
10474;BME280;5284;50.446;7.904;2022-08-19T06:15:33;98177.38;;;18.07;100.00
10474;BME280;5284;50.446;7.904;2022-08-19T06:20:36;98182.13;;;18.19;100.00
10474;BME280;5284;50.446;7.904;2022-08-19T06:25:56;98191.09;;;18.34;100.00
10474;BME280;5284;50.446;7.904;2022-08-19T06:31:05;98199.19;;;18.48;100.00
10474;BME280;5284;50.446;7.904;2022-08-19T06:36:16;98205.72;;;18.54;100.00
10474;BME280;5284;50.446;7.904;2022-08-19T06:41:19;98211.19;;;18.60;100.00
10474;BME280;5284;50.446;7.904;2022-08-19T06:46:24;98229.78;;;18.70;100.00
10474;BME280;5284;50.446;7.904;2022-08-19T06:51:27;98239.88;;;18.76;100.00
10474;BME280;5284;50.446;7.904;2022-08-19T06:56:32;98246.38;;;18.81;100.00
10474;BME280;5284;50.446;7.904;2022-08-19T07:01:39;98249.53;;;18.85;100.00
10474;BME280;5284;50.446;7.904;2022-08-19T07:06:43;98260.06;;;18.94;100.00
10474;BME280;5284;50.446;7.904;2022-08-19T07:11:55;98247.97;;;19.11;100.00
10474;BME280;5284;50.446;7.904;2022-08-19T07:16:59;98252.19;;;19.28;100.00
10474;BME280;5284;50.446;7.904;2022-08-19T07:22:04;98245.69;;;19.44;100.00
10474;BME280;5284;50.446;7.904;2022-08-19T07:27:14;98257.00;;;19.54;100.00
10474;BME280;5284;50.446;7.904;2022-08-19T07:32:18;98266.53;;;19.71;100.00
10474;BME280;5284;50.446;7.904;2022-08-19T07:37:21;98264.84;;;19.91;100.00
10474;BME280;5284;50.446;7.904;2022-08-19T07:42:24;98269.00;;;20.08;100.00
10474;BME280;5284;50.446;7.904;2022-08-19T07:47:29;98271.72;;;20.14;100.00
10474;BME280;5284;50.446;7.904;2022-08-19T07:52:52;98278.63;;;20.44;99.17
10474;BME280;5284;50.446;7.904;2022-08-19T07:57:55;98275.28;;;20.42;99.89
10474;BME280;5284;50.446;7.904;2022-08-19T08:02:59;98285.56;;;20.53;99.70
10474;BME280;5284;50.446;7.904;2022-08-19T08:08:02;98281.53;;;21.10;96.28
10474;BME280;5284;50.446;7.904;2022-08-19T08:13:45;98277.03;;;21.43;93.17
10474;BME280;5284;50.446;7.904;2022-08-19T08:19:04;98285.94;;;21.84;91.14
10474;BME280;5284;50.446;7.904;2022-08-19T08:24:28;98273.81;;;22.19;87.89
10474;BME280;5284;50.446;7.904;2022-08-19T08:29:32;98272.53;;;22.67;84.54
10474;BME280;5284;50.446;7.904;2022-08-19T08:34:37;98271.97;;;23.22;82.28
10474;BME280;5284;50.446;7.904;2022-08-19T08:39:39;98271.81;;;23.47;80.42
10474;BME280;5284;50.446;7.904;2022-08-19T08:44:48;98261.91;;;23.59;79.40
10474;BME280;5284;50.446;7.904;2022-08-19T08:50:03;98264.94;;;23.82;77.34
10474;BME280;5284;50.446;7.904;2022-08-19T08:55:10;98270.06;;;24.21;75.70
10474;BME280;5284;50.446;7.904;2022-08-19T09:00:17;98273.97;;;24.56;73.71
10474;BME280;5284;50.446;7.904;2022-08-19T09:05:26;98272.78;;;24.70;73.25
10474;BME280;5284;50.446;7.904;2022-08-19T09:10:51;98264.06;;;24.97;72.14
10474;BME280;5284;50.446;7.904;2022-08-19T09:15:58;98267.50;;;24.93;70.05
10474;BME280;5284;50.446;7.904;2022-08-19T09:21:05;98268.31;;;25.29;69.39
10474;BME280;5284;50.446;7.904;2022-08-19T09:26:10;98266.50;;;25.23;67.15
10474;BME280;5284;50.446;7.904;2022-08-19T09:31:19;98259.91;;;25.60;65.56
10474;BME280;5284;50.446;7.904;2022-08-19T09:36:25;98263.13;;;25.87;63.40
10474;BME280;5284;50.446;7.904;2022-08-19T09:41:35;98267.94;;;25.73;61.34
10474;BME280;5284;50.446;7.904;2022-08-19T09:46:38;98266.56;;;25.64;62.89
10474;BME280;5284;50.446;7.904;2022-08-19T09:51:42;98267.53;;;25.99;61.43
10474;BME280;5284;50.446;7.904;2022-08-19T09:56:51;98256.75;;;26.16;59.13
10474;BME280;5284;50.446;7.904;2022-08-19T10:01:55;98258.56;;;26.33;58.93
10474;BME280;5284;50.446;7.904;2022-08-19T10:07:13;98259.69;;;26.55;56.84
10474;BME280;5284;50.446;7.904;2022-08-19T10:12:15;98258.00;;;26.88;56.12
10474;BME280;5284;50.446;7.904;2022-08-19T10:17:20;98265.47;;;27.16;56.22
10474;BME280;5284;50.446;7.904;2022-08-19T10:22:29;98252.66;;;26.59;53.97
10474;BME280;5284;50.446;7.904;2022-08-19T10:27:32;98246.69;;;27.36;53.32
10474;BME280;5284;50.446;7.904;2022-08-19T10:32:36;98238.56;;;27.01;53.80
10474;BME280;5284;50.446;7.904;2022-08-19T10:37:48;98227.97;;;27.44;52.74
10474;BME280;5284;50.446;7.904;2022-08-19T10:43:00;98231.94;;;27.37;52.97
10474;BME280;5284;50.446;7.904;2022-08-19T10:48:03;98218.75;;;27.50;53.63
10474;BME280;5284;50.446;7.904;2022-08-19T10:53:08;98223.06;;;27.46;52.46
10474;BME280;5284;50.446;7.904;2022-08-19T10:58:12;98225.25;;;28.33;51.24
10474;BME280;5284;50.446;7.904;2022-08-19T11:03:15;98208.56;;;27.74;51.26
10474;BME280;5284;50.446;7.904;2022-08-19T11:08:19;98213.66;;;28.15;51.33
10474;BME280;5284;50.446;7.904;2022-08-19T11:13:24;98210.56;;;27.95;48.80
10474;BME280;5284;50.446;7.904;2022-08-19T11:18:27;98217.81;;;28.50;48.82
10474;BME280;5284;50.446;7.904;2022-08-19T11:23:32;98217.72;;;28.99;47.61
10474;BME280;5284;50.446;7.904;2022-08-19T11:28:35;98226.03;;;28.17;48.62
10474;BME280;5284;50.446;7.904;2022-08-19T11:33:37;98212.19;;;29.16;48.23
10474;BME280;5284;50.446;7.904;2022-08-19T11:38:43;98212.47;;;28.76;47.57
10474;BME280;5284;50.446;7.904;2022-08-19T11:43:47;98208.09;;;29.18;47.34
10474;BME280;5284;50.446;7.904;2022-08-19T11:48:50;98215.41;;;29.56;45.36
10474;BME280;5284;50.446;7.904;2022-08-19T11:53:55;98213.69;;;30.29;45.83
10474;BME280;5284;50.446;7.904;2022-08-19T11:59:00;98219.31;;;30.80;43.61
10474;BME280;5284;50.446;7.904;2022-08-19T12:04:03;98214.34;;;30.82;43.96
10474;BME280;5284;50.446;7.904;2022-08-19T12:09:09;98210.63;;;31.64;43.94
10474;BME280;5284;50.446;7.904;2022-08-19T12:14:13;98210.00;;;31.53;43.59
10474;BME280;5284;50.446;7.904;2022-08-19T12:19:19;98209.59;;;32.35;41.20
10474;BME280;5284;50.446;7.904;2022-08-19T12:24:24;98201.13;;;34.27;40.51
10474;BME280;5284;50.446;7.904;2022-08-19T12:29:27;98193.84;;;34.93;38.96
10474;BME280;5284;50.446;7.904;2022-08-19T12:34:31;98197.16;;;34.95;38.37
10474;BME280;5284;50.446;7.904;2022-08-19T12:39:38;98191.91;;;35.40;37.51
10474;BME280;5284;50.446;7.904;2022-08-19T12:44:42;98180.31;;;34.29;37.67
10474;BME280;5284;50.446;7.904;2022-08-19T12:49:45;98188.44;;;33.82;38.51
10474;BME280;5284;50.446;7.904;2022-08-19T12:54:57;98190.25;;;32.60;39.39
10474;BME280;5284;50.446;7.904;2022-08-19T13:00:03;98174.56;;;33.82;37.48
10474;BME280;5284;50.446;7.904;2022-08-19T13:05:10;98177.41;;;34.11;35.31
10474;BME280;5284;50.446;7.904;2022-08-19T13:10:16;98175.81;;;35.18;36.07
10474;BME280;5284;50.446;7.904;2022-08-19T13:15:22;98176.34;;;36.50;34.58
10474;BME280;5284;50.446;7.904;2022-08-19T13:20:25;98190.28;;;36.95;35.86
10474;BME280;5284;50.446;7.904;2022-08-19T13:25:29;98185.75;;;36.22;35.67
10474;BME280;5284;50.446;7.904;2022-08-19T13:30:32;98199.94;;;37.92;33.38
10474;BME280;5284;50.446;7.904;2022-08-19T13:35:57;98203.50;;;38.28;32.91
10474;BME280;5284;50.446;7.904;2022-08-19T13:41:05;98207.84;;;39.47;33.00
10474;BME280;5284;50.446;7.904;2022-08-19T13:46:13;98195.91;;;37.98;33.07
10474;BME280;5284;50.446;7.904;2022-08-19T13:51:17;98189.59;;;39.02;31.65
10474;BME280;5284;50.446;7.904;2022-08-19T13:56:21;98191.94;;;37.63;33.10
10474;BME280;5284;50.446;7.904;2022-08-19T14:01:27;98183.94;;;35.75;35.56
10474;BME280;5284;50.446;7.904;2022-08-19T14:06:31;98193.09;;;35.94;33.98
10474;BME280;5284;50.446;7.904;2022-08-19T14:11:35;98200.50;;;37.40;32.68
10474;BME280;5284;50.446;7.904;2022-08-19T14:16:38;98205.94;;;37.85;32.44
10474;BME280;5284;50.446;7.904;2022-08-19T14:21:41;98211.06;;;37.92;31.21
10474;BME280;5284;50.446;7.904;2022-08-19T14:26:45;98209.38;;;38.83;30.29
10474;BME280;5284;50.446;7.904;2022-08-19T14:31:48;98208.53;;;39.13;28.77
10474;BME280;5284;50.446;7.904;2022-08-19T14:36:51;98211.75;;;40.95;28.52
10474;BME280;5284;50.446;7.904;2022-08-19T14:41:55;98205.31;;;41.40;27.82
10474;BME280;5284;50.446;7.904;2022-08-19T14:46:58;98205.72;;;41.59;28.40
10474;BME280;5284;50.446;7.904;2022-08-19T14:52:03;98209.09;;;40.98;27.97
10474;BME280;5284;50.446;7.904;2022-08-19T14:57:11;98213.22;;;41.01;28.71
10474;BME280;5284;50.446;7.904;2022-08-19T15:02:14;98227.53;;;42.32;27.96
10474;BME280;5284;50.446;7.904;2022-08-19T15:07:35;98233.66;;;42.66;26.69
10474;BME280;5284;50.446;7.904;2022-08-19T15:12:39;98238.25;;;44.07;26.52
10474;BME280;5284;50.446;7.904;2022-08-19T15:17:42;98257.81;;;45.99;24.70
10474;BME280;5284;50.446;7.904;2022-08-19T15:22:47;98236.88;;;44.01;25.56
10474;BME280;5284;50.446;7.904;2022-08-19T15:27:51;98241.00;;;44.83;25.68
10474;BME280;5284;50.446;7.904;2022-08-19T15:32:55;98238.34;;;44.62;25.53
10474;BME280;5284;50.446;7.904;2022-08-19T15:37:58;98230.78;;;45.98;24.32
10474;BME280;5284;50.446;7.904;2022-08-19T15:43:02;98229.84;;;47.23;23.42
10474;BME280;5284;50.446;7.904;2022-08-19T15:48:05;98226.78;;;46.91;22.83
10474;BME280;5284;50.446;7.904;2022-08-19T15:53:08;98231.63;;;47.99;22.50
10474;BME280;5284;50.446;7.904;2022-08-19T15:58:15;98209.88;;;45.22;22.80
10474;BME280;5284;50.446;7.904;2022-08-19T16:03:35;98187.25;;;42.81;24.93
10474;BME280;5284;50.446;7.904;2022-08-19T16:08:58;98186.97;;;41.80;26.05
10474;BME280;5284;50.446;7.904;2022-08-19T16:14:03;98188.97;;;41.80;26.50
10474;BME280;5284;50.446;7.904;2022-08-19T16:19:09;98186.38;;;39.56;27.95
10474;BME280;5284;50.446;7.904;2022-08-19T16:24:16;98175.47;;;38.24;29.12
10474;BME280;5284;50.446;7.904;2022-08-19T16:29:22;98179.53;;;36.75;31.08
10474;BME280;5284;50.446;7.904;2022-08-19T16:34:35;98171.44;;;35.54;32.57
10474;BME280;5284;50.446;7.904;2022-08-19T16:39:40;98176.19;;;34.55;33.91
10474;BME280;5284;50.446;7.904;2022-08-19T16:44:46;98171.22;;;33.85;34.38
10474;BME280;5284;50.446;7.904;2022-08-19T16:49:49;98173.94;;;33.52;34.51
10474;BME280;5284;50.446;7.904;2022-08-19T16:54:55;98186.22;;;33.16;34.54
10474;BME280;5284;50.446;7.904;2022-08-19T17:00:00;98178.06;;;32.66;36.06
10474;BME280;5284;50.446;7.904;2022-08-19T17:05:07;98169.44;;;31.43;38.09
10474;BME280;5284;50.446;7.904;2022-08-19T17:10:10;98176.81;;;31.23;38.93
10474;BME280;5284;50.446;7.904;2022-08-19T17:15:14;98182.41;;;30.08;40.53
10474;BME280;5284;50.446;7.904;2022-08-19T17:20:17;98189.00;;;29.55;41.43
10474;BME280;5284;50.446;7.904;2022-08-19T17:25:20;98192.31;;;28.71;42.63
10474;BME280;5284;50.446;7.904;2022-08-19T17:30:25;98179.81;;;28.09;44.05
10474;BME280;5284;50.446;7.904;2022-08-19T17:35:28;98176.16;;;27.43;44.90
10474;BME280;5284;50.446;7.904;2022-08-19T17:40:30;98178.41;;;27.06;46.11
10474;BME280;5284;50.446;7.904;2022-08-19T17:45:36;98190.91;;;26.63;46.86
10474;BME280;5284;50.446;7.904;2022-08-19T17:50:39;98183.41;;;26.24;47.63
10474;BME280;5284;50.446;7.904;2022-08-19T17:55:42;98180.91;;;26.00;47.49
10474;BME280;5284;50.446;7.904;2022-08-19T18:00:49;98184.75;;;25.69;48.42
10474;BME280;5284;50.446;7.904;2022-08-19T18:05:55;98195.03;;;25.56;48.68
10474;BME280;5284;50.446;7.904;2022-08-19T18:10:59;98196.63;;;25.34;49.37
10474;BME280;5284;50.446;7.904;2022-08-19T18:16:05;98210.50;;;25.32;49.18
10474;BME280;5284;50.446;7.904;2022-08-19T18:21:11;98213.94;;;25.10;50.31
10474;BME280;5284;50.446;7.904;2022-08-19T18:26:14;98219.88;;;24.89;50.92
10474;BME280;5284;50.446;7.904;2022-08-19T18:31:18;98224.72;;;24.69;51.86
10474;BME280;5284;50.446;7.904;2022-08-19T18:36:21;98234.72;;;24.57;52.17
10474;BME280;5284;50.446;7.904;2022-08-19T18:41:44;98230.88;;;24.40;52.27
10474;BME280;5284;50.446;7.904;2022-08-19T18:47:06;98237.06;;;24.29;52.45
10474;BME280;5284;50.446;7.904;2022-08-19T18:52:26;98248.09;;;24.16;53.22
10474;BME280;5284;50.446;7.904;2022-08-19T18:57:29;98263.03;;;24.07;53.10
10474;BME280;5284;50.446;7.904;2022-08-19T19:02:37;98266.91;;;24.00;53.39
10474;BME280;5284;50.446;7.904;2022-08-19T19:07:41;98276.00;;;23.87;53.96
10474;BME280;5284;50.446;7.904;2022-08-19T19:12:44;98278.13;;;23.79;54.69
10474;BME280;5284;50.446;7.904;2022-08-19T19:17:48;98280.25;;;23.70;55.57
10474;BME280;5284;50.446;7.904;2022-08-19T19:22:51;98288.69;;;23.62;55.62
10474;BME280;5284;50.446;7.904;2022-08-19T19:27:58;98286.41;;;23.59;55.90
10474;BME280;5284;50.446;7.904;2022-08-19T19:33:03;98291.88;;;23.53;56.67
10474;BME280;5284;50.446;7.904;2022-08-19T19:38:06;98295.69;;;23.45;57.09
10474;BME280;5284;50.446;7.904;2022-08-19T19:43:09;98306.41;;;23.40;57.36
10474;BME280;5284;50.446;7.904;2022-08-19T19:48:13;98306.22;;;23.35;58.22
10474;BME280;5284;50.446;7.904;2022-08-19T19:53:16;98310.63;;;23.30;57.92
10474;BME280;5284;50.446;7.904;2022-08-19T19:58:19;98325.97;;;23.25;59.81
10474;BME280;5284;50.446;7.904;2022-08-19T20:03:31;98329.56;;;23.19;60.97
10474;BME280;5284;50.446;7.904;2022-08-19T20:08:34;98334.56;;;23.15;61.08
10474;BME280;5284;50.446;7.904;2022-08-19T20:13:55;98333.09;;;23.13;60.99
10474;BME280;5284;50.446;7.904;2022-08-19T20:19:00;98332.69;;;23.09;61.60
10474;BME280;5284;50.446;7.904;2022-08-19T20:24:04;98340.84;;;23.03;62.97
10474;BME280;5284;50.446;7.904;2022-08-19T20:29:10;98339.84;;;22.97;63.54
10474;BME280;5284;50.446;7.904;2022-08-19T20:34:35;98337.53;;;22.94;63.31
10474;BME280;5284;50.446;7.904;2022-08-19T20:39:37;98345.50;;;22.89;63.56
10474;BME280;5284;50.446;7.904;2022-08-19T20:44:40;98345.72;;;22.81;66.00
10474;BME280;5284;50.446;7.904;2022-08-19T20:49:44;98356.19;;;22.78;66.07
10474;BME280;5284;50.446;7.904;2022-08-19T20:54:47;98351.16;;;22.75;66.37
10474;BME280;5284;50.446;7.904;2022-08-19T20:59:50;98359.53;;;22.67;68.51
10474;BME280;5284;50.446;7.904;2022-08-19T21:04:54;98352.00;;;22.62;68.50
10474;BME280;5284;50.446;7.904;2022-08-19T21:10:00;98360.19;;;22.56;69.84
10474;BME280;5284;50.446;7.904;2022-08-19T21:15:06;98347.88;;;22.47;70.41
10474;BME280;5284;50.446;7.904;2022-08-19T21:20:10;98352.03;;;22.43;69.91
10474;BME280;5284;50.446;7.904;2022-08-19T21:25:14;98354.91;;;22.35;71.06
10474;BME280;5284;50.446;7.904;2022-08-19T21:30:17;98357.25;;;22.31;71.32
10474;BME280;5284;50.446;7.904;2022-08-19T21:35:22;98347.81;;;22.27;71.94
10474;BME280;5284;50.446;7.904;2022-08-19T21:40:25;98360.34;;;22.22;72.81
10474;BME280;5284;50.446;7.904;2022-08-19T21:45:29;98370.16;;;22.16;73.06
10474;BME280;5284;50.446;7.904;2022-08-19T21:50:33;98372.25;;;22.14;72.50
10474;BME280;5284;50.446;7.904;2022-08-19T21:55:37;98372.03;;;22.09;73.42
10474;BME280;5284;50.446;7.904;2022-08-19T22:00:40;98365.78;;;22.02;75.83
10474;BME280;5284;50.446;7.904;2022-08-19T22:05:44;98362.44;;;22.00;75.55
10474;BME280;5284;50.446;7.904;2022-08-19T22:10:47;98359.28;;;21.97;74.96
10474;BME280;5284;50.446;7.904;2022-08-19T22:15:50;98357.41;;;21.97;73.71
10474;BME280;5284;50.446;7.904;2022-08-19T22:20:54;98356.97;;;21.94;74.06
10474;BME280;5284;50.446;7.904;2022-08-19T22:25:57;98358.84;;;21.87;76.42
10474;BME280;5284;50.446;7.904;2022-08-19T22:31:00;98353.81;;;21.84;76.58
10474;BME280;5284;50.446;7.904;2022-08-19T22:36:06;98354.00;;;21.76;78.41
10474;BME280;5284;50.446;7.904;2022-08-19T22:41:09;98366.72;;;21.69;80.08
10474;BME280;5284;50.446;7.904;2022-08-19T22:46:12;98373.81;;;21.64;79.84
10474;BME280;5284;50.446;7.904;2022-08-19T22:51:19;98365.16;;;21.54;82.83
10474;BME280;5284;50.446;7.904;2022-08-19T22:56:39;98369.56;;;21.48;84.09
10474;BME280;5284;50.446;7.904;2022-08-19T23:01:44;98360.16;;;21.44;83.23
10474;BME280;5284;50.446;7.904;2022-08-19T23:06:48;98360.75;;;21.40;85.59
10474;BME280;5284;50.446;7.904;2022-08-19T23:11:53;98359.25;;;21.37;84.70
10474;BME280;5284;50.446;7.904;2022-08-19T23:16:56;98367.00;;;21.34;86.46
10474;BME280;5284;50.446;7.904;2022-08-19T23:22:01;98359.88;;;21.33;85.64
10474;BME280;5284;50.446;7.904;2022-08-19T23:27:05;98359.41;;;21.23;89.19
10474;BME280;5284;50.446;7.904;2022-08-19T23:32:26;98355.22;;;21.20;88.90
10474;BME280;5284;50.446;7.904;2022-08-19T23:37:31;98352.47;;;21.14;90.56
10474;BME280;5284;50.446;7.904;2022-08-19T23:42:33;98352.06;;;21.10;91.36
10474;BME280;5284;50.446;7.904;2022-08-19T23:47:36;98361.41;;;21.08;91.51
10474;BME280;5284;50.446;7.904;2022-08-19T23:52:45;98369.75;;;21.06;91.37
10474;BME280;5284;50.446;7.904;2022-08-19T23:57:48;98367.19;;;20.98;95.77
